Flight Track Log - Related Links

Times and Time Zones

All times are in EDT time to prevent confusion due to time zone crossing. See the EJA982 flight status page for this flight to view local times or setup timezone preferences in your user account.

Time Position Orientation Groundspeed Altitude Reporting Facility
EDT Latitude Longitude Course Direction KTS MPH feet Rate Location/Type
Fri 10:27:49 PM 41.5253 -81.6731 162° South 162 186 1,400  Level Cleveland Center
Fri 10:28:26 PM 41.5486 -81.6486 38° Northeast 184 212 3,000 3,155 Climbing Cleveland Center
Fri 10:29:26 PM 41.5533 -81.5847 84° East 227 261 6,500 3,048 Climbing Cleveland Center
Fri 10:30:32 PM 41.4933 -81.5283 145° Southeast 292 336 9,400 2,524 Climbing Cleveland Center
Fri 10:31:32 PM 41.4167 -81.4664 149° Southeast 324 373 11,800 2,250 Climbing Cleveland Center
Fri 10:32:32 PM 41.3211 -81.4236 161° South 340 391 13,900 2,250 Climbing Cleveland Center
Fri 10:33:00 PM 40.9315 -81.1353 162° South  Level FlightAware Approximate
Fri 10:33:32 PM 41.1983 -81.3889 168° South 381 438 16,300  Level Cleveland Center
Fri 10:34:32 PM 41.0819 -81.3517 166° South 416 479 18,400 2,150 Climbing Cleveland Center
Fri 10:35:32 PM 40.9761 -81.2789 153° Southeast 427 491 20,600 2,250 Climbing Cleveland Center
Fri 10:36:32 PM 40.8806 -81.1817 142° Southeast 433 498 22,900 2,250 Climbing Cleveland Center
Fri 10:37:32 PM 40.7831 -81.0822 142° Southeast 444 511 25,100 2,000 Climbing Cleveland Center
Fri 10:38:32 PM 40.6981 -80.9911 141° Southeast 444 511 26,900 633 Climbing Cleveland Center
Fri 10:40:32 PM 40.4819 -80.7714 142° Southeast 487 560 27,000 33 Climbing Cleveland Center
Fri 10:41:32 PM 40.3547 -80.6431 142° Southeast 513 590 27,000  Level Cleveland Center
Fri 10:42:32 PM 40.2381 -80.5258 142° Southeast 520 598 27,000  Level Cleveland Center
Fri 10:43:32 PM 40.1233 -80.4119 143° Southeast 527 606 27,000  Level Cleveland Center
Fri 10:44:32 PM 40.0064 -80.2986 143° Southeast 527 606 27,000  Level Cleveland Center
Fri 10:45:32 PM 39.8892 -80.1800 142° Southeast 527 606 27,000  Level Cleveland Center
Fri 10:46:32 PM 39.7742 -80.0700 144° Southeast 527 606 27,000  Level Cleveland Center
Fri 10:48:03 PM 39.6133 -79.9125 143° Southeast 520 598 27,000  Level Washington Center
Fri 10:49:03 PM 39.4986 -79.7981 142° Southeast 520 598 27,000  Level Washington Center
Fri 10:50:04 PM 39.3858 -79.6839 142° Southeast 520 598 27,000  Level Washington Center
Fri 10:51:05 PM 39.2708 -79.5675 142° Southeast 515 593 27,000 -403 Level Washington Center
Fri 10:52:03 PM 39.1600 -79.4517 141° Southeast 515 593 26,200 -1,008 Descending Washington Center
Fri 10:53:04 PM 39.0447 -79.3361 142° Southeast 496 571 25,000 -1,388 Descending Washington Center
Fri 10:54:04 PM 38.9497 -79.2406 142° Southeast 490 564 23,400 -1,686 Descending Washington Center
Fri 10:55:05 PM 38.8425 -79.1367 143° Southeast 490 564 21,600 -1,785 Descending Washington Center
Fri 10:56:05 PM 38.7389 -79.0358 143° Southeast 485 558 19,800 -2,118 Descending Washington Center
Fri 10:57:04 PM 38.6436 -78.9436 143° Southeast 465 535 17,400 -2,746 Descending Washington Center
Fri 10:58:03 PM 38.5522 -78.8517 142° Southeast 441 507 14,400 -2,500 Descending Washington Center
Fri 10:59:04 PM 38.4689 -78.7711 143° Southeast 407 468 12,400 -2,529 Descending Washington Center
Fri 11:00:04 PM 38.4039 -78.7075 143° Southeast 349 402 9,300 -2,975 Descending Washington Center
Fri 11:01:05 PM 38.3494 -78.6364 134° Southeast 303 349 6,400 -2,269 Descending Washington Center
Fri 11:02:03 PM 38.3014 -78.5578 128° Southeast 281 323 4,800 -1,400 Descending Washington Center
Fri 11:03:05 PM 38.2614 -78.4928 128° Southeast 252 290 3,600 -1,230 Descending Washington Center
Fri 11:04:05 PM 38.2208 -78.4383 133° Southeast 198 228 2,300 -1,068 Descending Washington Center
Fri 11:05:03 PM 38.1897 -78.4317 170° South 142 163 1,500 -763 Descending Washington Center
Fri 11:06:03 PM 38.1519 -78.4461 197° South 131 151 800 -393 Descending Washington Center
Fri 11:07:05 PM 38.1142 -78.4525 188° South 131 151 700 -97 Descending Washington Center
Fri 11:09:00 PM 38.1333 -78.4500 North  Level FlightAware Approximate
Fri 11:16:00 PM 38.1386 -78.4529 North  Level Estimated
Fri 11:17:00 PM 38.1333 -78.4500 North  Level FlightAware Approximate
Fri 11:18:00 PM 38.1386 -78.4529 North  Level Estimated
Fri 11:19:00 PM 38.1333 -78.4500 North  Level FlightAware Approximate
Fri 11:20:00 PM 38.1386 -78.4529 North  Level Estimated
Fri 11:21:00 PM 38.1333 -78.4500 North  Level FlightAware Approximate
Fri 11:22:00 PM 38.1386 -78.4529 North  Level Estimated
Fri 11:23:00 PM 38.1333 -78.4500 North  Level FlightAware Approximate

Login

Don't have an account? Register now (free) for customized features, flight alerts, and more!